Time;durP1;ratioP1;P1;durP2;ratioP2;P2;SDS_P1;SDS_P2;PMS_P1;PMS_P2;Temp;Humidity;BMP_temperature;BMP_pressure;BME280_temperature;BME280_humidity;BME280_pressure;Samples;Min_cycle;Max_cycle;Signal;HPM_P1;HPM_P2
2021/08/03 00:00:20;;;;;;;4.38;1.50;;;22.70;96.70;;;;;;4905032;29;20072;-73
2021/08/03 00:03:28;;;;;;;4.22;1.40;;;22.40;96.70;;;;;;4907211;29;20055;-72
2021/08/03 00:05:58;;;;;;;5.05;1.60;;;22.20;96.70;;;;;;4934721;28;20052;-71
2021/08/03 00:08:32;;;;;;;6.60;1.92;;;21.90;96.70;;;;;;4921875;29;20498;-70
2021/08/03 00:11:03;;;;;;;7.40;2.10;;;21.90;96.70;;;;;;4934394;28;20055;-70
2021/08/03 00:13:33;;;;;;;5.65;1.98;;;22.00;96.70;;;;;;4906784;29;20071;-71
2021/08/03 00:16:17;;;;;;;10.05;1.92;;;22.20;96.70;;;;;;4906428;29;20546;-70
2021/08/03 00:18:48;;;;;;;7.07;1.70;;;22.40;96.70;;;;;;4902215;29;20558;-70
2021/08/03 00:21:31;;;;;;;7.50;2.17;;;22.40;96.70;;;;;;4910821;29;20071;-70
2021/08/03 00:23:59;;;;;;;9.75;1.90;;;22.40;96.70;;;;;;4903380;29;20458;-71
2021/08/03 00:26:46;;;;;;;5.82;1.75;;;22.30;96.70;;;;;;4909383;29;20047;-71
2021/08/03 00:29:15;;;;;;;10.77;1.80;;;22.30;96.70;;;;;;4915042;29;20040;-70
2021/08/03 00:32:08;;;;;;;6.80;1.58;;;22.30;96.70;;;;;;4924946;28;20044;-71
2021/08/03 00:34:38;;;;;;;4.60;1.33;;;22.40;96.70;;;;;;4925875;29;20066;-70
2021/08/03 00:37:25;;;;;;;6.00;1.52;;;22.40;96.70;;;;;;4909975;29;20499;-71
2021/08/03 00:39:53;;;;;;;;;;;22.40;96.70;;;;;;4915663;29;20058;-70
2021/08/03 00:42:24;;;;;;;10.63;2.10;;;22.40;96.70;;;;;;4908829;29;19927;-70
2021/08/03 00:44:53;;;;;;;4.68;1.60;;;22.30;96.70;;;;;;4937276;28;20102;-70
2021/08/03 00:47:28;;;;;;;6.05;1.70;;;22.20;96.70;;;;;;4908162;29;20044;-71
2021/08/03 00:50:08;;;;;;;4.10;1.55;;;22.30;96.70;;;;;;4936487;28;20063;-71
2021/08/03 00:52:42;;;;;;;7.50;1.85;;;22.40;96.70;;;;;;4889356;29;20060;-71
2021/08/03 00:55:14;;;;;;;5.22;1.75;;;22.40;96.70;;;;;;4940537;28;20056;-70
2021/08/03 00:57:50;;;;;;;6.63;1.77;;;22.40;96.70;;;;;;4917589;29;20058;-70
2021/08/03 01:00:21;;;;;;;7.13;1.30;;;22.50;96.70;;;;;;4918023;29;20045;-71
2021/08/03 01:03:47;;;;;;;5.20;1.83;;;22.50;96.70;;;;;;4907958;29;20040;-71
2021/08/03 01:06:24;;;;;;;9.60;1.55;;;22.40;96.70;;;;;;4907267;29;20048;-70
2021/08/03 01:09:01;;;;;;;5.10;2.10;;;22.30;96.70;;;;;;4934808;29;20048;-70
2021/08/03 01:11:42;;;;;;;9.45;2.30;;;22.20;96.70;;;;;;4901995;29;20070;-70
2021/08/03 01:14:17;;;;;;;6.70;1.45;;;22.10;96.70;;;;;;4907641;29;20383;-70
2021/08/03 01:16:53;;;;;;;5.40;1.33;;;22.00;96.70;;;;;;4916091;29;20048;-70
2021/08/03 01:19:35;;;;;;;7.07;2.17;;;22.00;96.70;;;;;;4911737;29;20554;-71
2021/08/03 01:22:45;;;;;;;4.95;1.55;;;22.00;96.70;;;;;;4937163;28;20048;-70
2021/08/03 01:25:24;;;;;;;7.55;1.90;;;22.00;96.70;;;;;;4937849;28;20228;-70
2021/08/03 01:28:13;;;;;;;6.68;1.70;;;21.90;96.70;;;;;;4933774;28;20115;-71
2021/08/03 01:30:49;;;;;;;4.63;1.20;;;21.90;96.70;;;;;;4902195;29;20059;-70
2021/08/03 01:33:22;;;;;;;4.63;1.20;;;21.80;96.70;;;;;;4905878;29;20415;-71
2021/08/03 01:35:55;;;;;;;3.30;1.70;;;21.80;96.70;;;;;;4897118;29;20055;-71
2021/08/03 01:38:28;;;;;;;3.20;1.35;;;21.90;96.70;;;;;;4921157;29;20047;-70
2021/08/03 01:41:04;;;;;;;4.75;1.30;;;21.90;96.70;;;;;;4906545;29;20148;-70
2021/08/03 01:43:38;;;;;;;;;;;21.90;96.70;;;;;;4893641;29;20518;-70
2021/08/03 01:46:08;;;;;;;4.78;1.63;;;21.90;96.70;;;;;;4902977;29;20305;-70
2021/08/03 01:49:03;;;;;;;5.50;1.20;;;21.90;96.70;;;;;;4907153;29;20048;-70
2021/08/03 01:51:34;;;;;;;5.70;1.20;;;21.90;96.70;;;;;;4937352;28;20064;-70
2021/08/03 01:54:04;;;;;;;7.30;1.67;;;21.90;96.70;;;;;;4908748;29;20084;-70
2021/08/03 01:56:38;;;;;;;5.47;1.42;;;21.70;96.70;;;;;;4904153;29;20076;-71
2021/08/03 01:59:11;;;;;;;2.22;1.20;;;21.60;96.70;;;;;;4909112;29;20084;-70
2021/08/03 02:01:40;;;;;;;6.05;1.83;;;21.70;96.70;;;;;;4907006;29;20044;-70
2021/08/03 02:04:11;;;;;;;6.25;1.88;;;21.80;96.70;;;;;;4909105;29;20043;-70
2021/08/03 02:06:41;;;;;;;4.20;1.23;;;21.70;96.70;;;;;;4921671;29;20059;-71
2021/08/03 02:09:16;;;;;;;7.32;1.70;;;21.70;96.70;;;;;;4907357;29;20496;-70
2021/08/03 02:11:48;;;;;;;4.85;1.08;;;21.80;96.70;;;;;;4902076;29;20151;-71
2021/08/03 02:14:21;;;;;;;5.10;1.08;;;21.70;96.70;;;;;;4905583;29;20070;-70
2021/08/03 02:16:57;;;;;;;5.68;1.58;;;21.70;96.70;;;;;;4921743;29;20751;-71
2021/08/03 02:19:34;;;;;;;4.75;1.15;;;21.60;96.70;;;;;;4903968;29;20100;-70
2021/08/03 02:22:05;;;;;;;3.97;1.52;;;21.50;96.70;;;;;;4938852;28;20054;-71
2021/08/03 02:24:37;;;;;;;5.22;1.63;;;21.50;96.70;;;;;;4922007;28;20152;-70
2021/08/03 02:27:10;;;;;;;3.72;1.23;;;21.50;96.70;;;;;;4907906;29;20052;-71
2021/08/03 02:29:45;;;;;;;4.80;1.38;;;21.40;96.70;;;;;;4900718;29;20048;-70
2021/08/03 02:32:17;;;;;;;7.10;1.30;;;21.40;96.70;;;;;;4908366;29;20502;-70
2021/08/03 02:39:01;;;;;;;4.20;1.33;;;21.40;96.70;;;;;;4865102;29;20113;-71
2021/08/03 02:41:31;;;;;;;4.10;1.02;;;21.30;96.70;;;;;;4861823;29;20052;-71
2021/08/03 02:44:03;;;;;;;4.40;1.23;;;21.30;96.70;;;;;;4850113;29;20059;-71
2021/08/03 02:46:34;;;;;;;6.20;1.17;;;21.30;96.70;;;;;;4851645;29;20459;-70
2021/08/03 02:49:07;;;;;;;4.47;1.20;;;21.30;96.70;;;;;;4864788;29;20061;-71
2021/08/03 02:51:37;;;;;;;3.55;1.10;;;21.20;96.70;;;;;;4881846;29;20053;-71
2021/08/03 02:54:25;;;;;;;7.63;1.58;;;21.30;96.70;;;;;;4863493;29;20575;-70
2021/08/03 02:56:56;;;;;;;3.85;0.93;;;21.30;96.70;;;;;;4919298;29;20536;-71
2021/08/03 02:59:28;;;;;;;5.93;1.60;;;21.20;96.70;;;;;;4906572;29;20482;-72
2021/08/03 03:02:04;;;;;;;5.68;1.30;;;21.20;96.70;;;;;;4919950;29;20056;-71
2021/08/03 03:04:40;;;;;;;4.28;1.40;;;21.20;96.70;;;;;;4914880;29;20070;-71
2021/08/03 03:07:15;;;;;;;5.95;1.10;;;21.10;96.70;;;;;;4920551;29;20072;-70
2021/08/03 03:09:46;;;;;;;4.13;1.00;;;21.00;96.70;;;;;;4907638;29;20502;-71
2021/08/03 03:12:16;;;;;;;5.32;1.52;;;21.00;96.70;;;;;;4935335;29;20058;-71
2021/08/03 03:14:47;;;;;;;5.63;0.95;;;21.00;96.70;;;;;;4936855;28;20055;-70
2021/08/03 03:17:21;;;;;;;4.43;1.30;;;21.10;96.70;;;;;;4904360;29;20040;-71
2021/08/03 03:19:53;;;;;;;4.20;1.20;;;21.10;96.70;;;;;;4909394;29;20109;-71
2021/08/03 03:22:24;;;;;;;5.28;1.10;;;21.10;96.70;;;;;;4904726;29;20178;-71
2021/08/03 03:24:56;;;;;;;4.18;0.90;;;20.90;96.70;;;;;;4908230;29;20104;-71
2021/08/03 03:27:27;;;;;;;3.35;1.02;;;20.80;96.70;;;;;;4903298;29;20393;-70
2021/08/03 03:29:59;;;;;;;5.88;1.35;;;20.80;96.70;;;;;;4906521;29;20138;-71
2021/08/03 03:32:32;;;;;;;3.17;1.13;;;20.80;96.70;;;;;;4905806;29;20187;-70
2021/08/03 03:39:11;;;;;;;5.50;1.60;;;20.90;96.70;;;;;;4907432;29;20047;-72
2021/08/03 03:41:51;;;;;;;3.50;1.05;;;21.10;96.70;;;;;;4890639;29;20044;-72
2021/08/03 03:44:20;;;;;;;4.40;1.13;;;21.00;96.70;;;;;;4905862;29;20040;-72
2021/08/03 03:47:01;;;;;;;6.57;1.67;;;20.90;96.70;;;;;;4918082;28;20107;-72
2021/08/03 03:49:36;;;;;;;6.47;1.65;;;20.80;96.70;;;;;;4918314;28;20057;-72
2021/08/03 03:52:06;;;;;;;5.53;1.52;;;20.80;96.70;;;;;;4908562;29;20139;-72
2021/08/03 03:54:40;;;;;;;4.18;1.10;;;20.90;96.70;;;;;;4911144;29;20533;-72
2021/08/03 03:57:15;;;;;;;4.22;1.30;;;20.90;96.70;;;;;;4905292;29;20514;-72
2021/08/03 03:59:47;;;;;;;5.97;1.60;;;20.70;96.70;;;;;;4923651;28;20522;-72
2021/08/03 04:02:19;;;;;;;2.50;1.10;;;20.80;96.70;;;;;;4941245;28;20107;-73
2021/08/03 04:04:49;;;;;;;5.15;1.55;;;20.90;96.70;;;;;;4915511;29;20048;-72
2021/08/03 04:07:17;;;;;;;3.40;1.10;;;20.90;96.70;;;;;;4926419;29;20131;-72
2021/08/03 04:09:46;;;;;;;5.70;1.67;;;20.90;96.70;;;;;;4906872;29;20419;-72
2021/08/03 04:12:16;;;;;;;5.63;1.40;;;20.80;96.70;;;;;;4909496;29;20040;-72
2021/08/03 04:14:44;;;;;;;6.15;1.40;;;20.60;96.70;;;;;;4908188;29;20857;-73
2021/08/03 04:17:18;;;;;;;3.45;1.10;;;20.60;96.70;;;;;;4910244;29;20075;-72
2021/08/03 04:19:46;;;;;;;6.07;1.30;;;20.60;96.70;;;;;;4923673;28;20135;-72
2021/08/03 04:22:15;;;;;;;6.90;1.48;;;20.60;96.70;;;;;;4907836;29;20040;-73
2021/08/03 04:24:43;;;;;;;9.10;1.52;;;20.50;96.70;;;;;;4909082;29;20112;-72
2021/08/03 04:27:11;;;;;;;4.63;1.20;;;20.40;96.70;;;;;;4940751;28;20511;-72
2021/08/03 04:29:39;;;;;;;3.80;1.40;;;20.30;96.70;;;;;;4908000;29;20040;-72
2021/08/03 04:32:07;;;;;;;4.75;0.93;;;20.30;96.70;;;;;;4910680;29;20366;-72
2021/08/03 04:34:35;;;;;;;3.38;0.90;;;20.30;96.70;;;;;;4921941;28;20059;-72
2021/08/03 04:37:04;;;;;;;5.00;1.15;;;20.30;96.70;;;;;;4909088;29;20634;-72
2021/08/03 04:39:33;;;;;;;4.93;1.50;;;20.30;96.70;;;;;;4918838;29;20139;-73
2021/08/03 04:42:01;;;;;;;3.45;1.40;;;20.40;96.70;;;;;;4908647;29;20119;-73
2021/08/03 04:44:29;;;;;;;4.15;1.33;;;20.40;96.70;;;;;;4907704;29;20068;-72
2021/08/03 04:46:57;;;;;;;3.72;1.30;;;20.30;96.70;;;;;;4910292;29;20415;-73
2021/08/03 04:49:26;;;;;;;4.88;1.10;;;20.30;96.70;;;;;;4908825;28;20055;-72
2021/08/03 04:51:54;;;;;;;4.13;1.15;;;20.30;96.70;;;;;;4910234;29;20055;-72
2021/08/03 04:54:22;;;;;;;5.57;1.13;;;20.40;96.70;;;;;;4908347;29;20048;-72
2021/08/03 04:56:51;;;;;;;4.70;1.20;;;20.50;96.70;;;;;;4925447;28;20059;-72
2021/08/03 04:59:20;;;;;;;6.15;1.60;;;20.40;96.70;;;;;;4908785;29;20135;-72
2021/08/03 05:01:48;;;;;;;5.60;1.25;;;20.30;96.70;;;;;;4910803;29;20040;-72
2021/08/03 05:04:16;;;;;;;4.85;1.20;;;20.30;96.70;;;;;;4903542;29;20460;-72
2021/08/03 05:06:44;;;;;;;4.70;1.70;;;20.40;96.70;;;;;;4909983;29;20139;-72
2021/08/03 05:09:12;;;;;;;4.80;2.00;;;20.40;96.70;;;;;;4908293;29;20536;-72
2021/08/03 05:11:40;;;;;;;6.78;2.17;;;20.40;96.70;;;;;;4912023;29;20600;-72
2021/08/03 05:14:10;;;;;;;5.13;2.45;;;20.40;96.70;;;;;;4908136;29;20047;-72
2021/08/03 05:16:38;;;;;;;16.35;6.35;;;20.50;96.70;;;;;;4907337;29;20075;-72
2021/08/03 05:19:06;;;;;;;15.93;8.73;;;20.50;96.70;;;;;;4908991;29;20399;-72
2021/08/03 05:21:34;;;;;;;15.75;9.10;;;20.40;96.70;;;;;;4922979;28;20054;-72
2021/08/03 05:24:02;;;;;;;16.08;9.57;;;20.40;96.70;;;;;;4917745;29;20043;-73
2021/08/03 05:26:32;;;;;;;22.38;10.68;;;20.50;96.70;;;;;;4939204;28;20051;-73
2021/08/03 05:29:00;;;;;;;20.77;10.60;;;20.50;96.70;;;;;;4923340;29;20391;-72
2021/08/03 05:31:30;;;;;;;20.38;10.77;;;20.40;96.70;;;;;;4909875;29;20059;-72
2021/08/03 05:34:01;;;;;;;17.17;7.40;;;20.50;96.70;;;;;;4918652;29;20048;-72
2021/08/03 05:36:29;;;;;;;12.23;6.00;;;20.50;96.70;;;;;;4905644;29;20044;-72
2021/08/03 05:38:57;;;;;;;7.40;3.75;;;20.60;96.70;;;;;;4909744;29;20969;-72
2021/08/03 05:41:25;;;;;;;5.88;3.15;;;20.70;96.70;;;;;;4906308;29;20037;-73
2021/08/03 05:43:53;;;;;;;9.75;2.30;;;20.70;96.70;;;;;;4908411;29;20055;-73
2021/08/03 05:46:21;;;;;;;6.22;2.33;;;20.80;96.70;;;;;;4907292;29;20187;-72
2021/08/03 05:48:51;;;;;;;5.35;1.48;;;20.80;96.70;;;;;;4890349;29;20510;-72
2021/08/03 05:51:18;;;;;;;5.60;1.80;;;20.80;96.70;;;;;;4906087;29;20052;-72
2021/08/03 05:53:46;;;;;;;5.53;1.20;;;20.80;96.70;;;;;;4907797;29;20048;-72
2021/08/03 05:56:14;;;;;;;3.20;1.40;;;20.90;96.70;;;;;;4916952;29;20466;-73
2021/08/03 05:58:42;;;;;;;3.88;1.67;;;21.00;96.70;;;;;;4907723;29;20052;-74
2021/08/03 06:01:10;;;;;;;6.05;1.83;;;21.10;96.70;;;;;;4904707;29;20483;-73
2021/08/03 06:03:39;;;;;;;7.47;1.83;;;21.10;96.70;;;;;;4907543;29;20608;-73
2021/08/03 06:06:09;;;;;;;7.90;2.42;;;21.20;96.70;;;;;;4921809;28;20043;-75
2021/08/03 06:08:37;;;;;;;7.65;2.28;;;21.10;96.70;;;;;;4922972;29;20056;-74
2021/08/03 06:11:05;;;;;;;5.82;1.77;;;21.00;96.70;;;;;;4917093;28;20108;-74
2021/08/03 06:13:36;;;;;;;7.50;2.50;;;21.20;96.70;;;;;;4904501;29;20151;-74
2021/08/03 06:16:05;;;;;;;7.40;2.25;;;21.20;96.70;;;;;;4906683;29;20099;-71
2021/08/03 06:18:37;;;;;;;6.97;2.60;;;21.30;96.70;;;;;;4909250;29;20139;-72
2021/08/03 06:21:07;;;;;;;6.05;1.80;;;21.30;96.70;;;;;;4920702;28;20130;-71
2021/08/03 06:23:37;;;;;;;9.65;1.92;;;21.40;96.70;;;;;;4908392;29;20048;-71
2021/08/03 06:26:06;;;;;;;6.70;2.00;;;21.40;96.70;;;;;;4936767;28;20040;-71
2021/08/03 06:28:35;;;;;;;5.20;1.60;;;21.50;96.70;;;;;;4908690;29;20494;-71
2021/08/03 06:31:04;;;;;;;4.68;1.40;;;21.40;96.70;;;;;;4906172;29;20044;-71
2021/08/03 06:33:32;;;;;;;2.95;1.30;;;21.50;96.70;;;;;;4908335;29;20135;-71
2021/08/03 06:36:00;;;;;;;8.73;1.80;;;21.60;96.70;;;;;;4907600;29;20430;-71
2021/08/03 06:38:30;;;;;;;4.60;1.42;;;21.60;96.70;;;;;;4921713;28;20040;-71
2021/08/03 06:41:02;;;;;;;3.90;1.40;;;21.70;96.70;;;;;;4907016;29;20079;-71
2021/08/03 06:43:32;;;;;;;6.10;1.60;;;21.80;96.70;;;;;;4903302;29;20597;-71
2021/08/03 06:46:04;;;;;;;7.00;1.85;;;21.90;96.70;;;;;;4908029;29;20045;-71
2021/08/03 06:48:36;;;;;;;5.07;1.50;;;22.00;96.70;;;;;;4905732;29;20049;-71
2021/08/03 06:51:09;;;;;;;4.63;1.23;;;22.10;96.70;;;;;;4907858;29;20044;-72
2021/08/03 06:53:40;;;;;;;6.32;1.33;;;22.10;96.70;;;;;;4907238;29;20503;-71
2021/08/03 06:56:09;;;;;;;6.80;1.75;;;22.20;96.70;;;;;;4915990;29;20052;-71
2021/08/03 06:58:46;;;;;;;4.32;1.52;;;22.30;96.70;;;;;;4921251;28;20044;-71
2021/08/03 07:01:18;;;;;;;7.47;1.50;;;22.40;96.70;;;;;;4911156;29;20047;-71
2021/08/03 07:03:48;;;;;;;8.60;1.50;;;22.40;96.70;;;;;;4906466;29;20040;-71
2021/08/03 07:06:20;;;;;;;7.90;1.50;;;22.40;96.70;;;;;;4907055;29;20067;-72
2021/08/03 07:08:52;;;;;;;6.13;1.45;;;22.40;96.70;;;;;;4908209;29;20044;-71
2021/08/03 07:11:21;;;;;;;4.82;1.48;;;22.40;96.70;;;;;;4908016;29;20044;-71
2021/08/03 07:13:49;;;;;;;8.65;1.67;;;22.50;96.70;;;;;;4905658;29;20044;-70
2021/08/03 07:16:18;;;;;;;7.22;1.75;;;22.50;96.70;;;;;;4908006;29;20052;-71
2021/08/03 07:26:19;;;;;;;8.88;1.80;;;22.80;96.70;;;;;;4908048;29;20203;-72
2021/08/03 07:28:47;;;;;;;7.17;1.47;;;22.90;96.70;;;;;;4916927;29;20052;-71
2021/08/03 07:31:15;;;;;;;8.15;1.70;;;23.00;96.70;;;;;;4921280;28;20052;-71
2021/08/03 07:33:43;;;;;;;7.55;1.48;;;23.00;96.70;;;;;;4916230;29;20142;-71
2021/08/03 07:36:13;;;;;;;3.72;1.02;;;23.10;96.70;;;;;;4906839;29;20059;-71
2021/08/03 07:38:42;;;;;;;9.32;1.58;;;23.20;96.70;;;;;;4939116;29;20055;-72
2021/08/03 07:41:10;;;;;;;5.88;1.70;;;23.30;96.70;;;;;;4904969;29;20047;-71
2021/08/03 07:43:42;;;;;;;5.38;1.55;;;23.30;96.70;;;;;;4908093;29;20088;-71
2021/08/03 07:46:10;;;;;;;7.50;1.75;;;23.40;96.70;;;;;;4919012;29;20041;-72
2021/08/03 07:48:38;;;;;;;7.10;1.35;;;23.60;96.70;;;;;;4937531;28;20048;-72
2021/08/03 07:51:06;;;;;;;8.55;2.08;;;23.60;96.70;;;;;;4915564;29;20056;-72
2021/08/03 07:53:35;;;;;;;7.75;1.60;;;23.60;96.70;;;;;;4905811;29;20066;-71
2021/08/03 07:56:04;;;;;;;7.15;1.88;;;23.70;96.70;;;;;;4897499;29;20052;-71
2021/08/03 07:58:32;;;;;;;6.22;1.30;;;23.70;96.70;;;;;;4898426;29;20048;-71
2021/08/03 08:01:03;;;;;;;4.32;1.25;;;23.70;96.70;;;;;;4935515;28;20072;-71
2021/08/03 08:03:32;;;;;;;8.68;1.67;;;23.60;96.70;;;;;;4907476;29;20048;-71
2021/08/03 08:06:00;;;;;;;10.07;1.75;;;23.70;96.70;;;;;;4903624;29;20047;-72
2021/08/03 08:08:29;;;;;;;7.43;1.70;;;23.80;96.70;;;;;;4921385;29;20586;-71
2021/08/03 08:10:57;;;;;;;3.97;1.05;;;23.90;96.70;;;;;;4905127;29;20546;-72
2021/08/03 08:13:26;;;;;;;6.43;1.20;;;24.00;96.70;;;;;;4890544;29;20120;-71
2021/08/03 08:15:54;;;;;;;5.97;1.45;;;24.10;96.70;;;;;;4903401;29;20059;-71
2021/08/03 08:18:24;;;;;;;4.07;1.40;;;24.10;96.70;;;;;;4912836;29;20453;-71
2021/08/03 08:20:52;;;;;;;7.68;1.38;;;24.20;96.70;;;;;;4917083;29;20053;-71
2021/08/03 08:23:21;;;;;;;8.38;1.50;;;24.30;96.70;;;;;;4922129;29;20045;-71
2021/08/03 08:25:49;;;;;;;7.25;1.42;;;24.30;96.70;;;;;;4906859;29;20225;-71
2021/08/03 08:28:17;;;;;;;5.88;1.23;;;24.30;96.70;;;;;;4921702;28;20056;-71
2021/08/03 08:30:45;;;;;;;6.07;1.38;;;24.40;96.70;;;;;;4902772;29;20459;-72
2021/08/03 08:33:14;;;;;;;3.75;1.20;;;24.50;96.70;;;;;;4905927;29;20518;-71
2021/08/03 08:35:45;;;;;;;4.25;0.90;;;24.60;96.70;;;;;;4904052;29;20055;-72
2021/08/03 08:38:13;;;;;;;5.68;1.17;;;24.70;96.70;;;;;;4910274;29;20052;-71
2021/08/03 08:40:42;;;;;;;4.78;1.10;;;24.80;96.70;;;;;;4908250;29;20048;-71
2021/08/03 08:43:13;;;;;;;4.32;1.10;;;24.80;96.70;;;;;;4922247;29;20575;-71
2021/08/03 08:45:42;;;;;;;5.40;1.02;;;24.90;96.70;;;;;;4924905;29;20578;-71
2021/08/03 08:48:11;;;;;;;5.38;0.82;;;25.10;96.70;;;;;;4910497;29;20130;-71
2021/08/03 08:50:39;;;;;;;4.18;0.85;;;25.10;96.70;;;;;;4910253;29;20056;-71
2021/08/03 08:53:10;;;;;;;4.82;0.90;;;25.20;96.70;;;;;;4907382;29;20046;-72
2021/08/03 08:55:38;;;;;;;3.03;0.90;;;25.20;96.70;;;;;;4922338;29;20048;-72
2021/08/03 08:58:06;;;;;;;2.53;0.70;;;25.20;96.70;;;;;;4910767;29;20179;-72
2021/08/03 09:00:34;;;;;;;3.88;1.20;;;25.20;96.70;;;;;;4908569;29;20052;-71
2021/08/03 09:03:02;;;;;;;7.00;1.35;;;25.20;96.70;;;;;;4908692;29;20532;-71
2021/08/03 09:05:33;;;;;;;5.70;1.15;;;25.20;96.70;;;;;;4909573;29;20092;-71
2021/08/03 09:08:03;;;;;;;6.20;1.02;;;25.20;96.70;;;;;;4910294;29;20490;-72
2021/08/03 09:10:36;;;;;;;3.95;1.17;;;25.30;96.70;;;;;;4910293;29;20048;-71
2021/08/03 09:13:07;;;;;;;4.60;1.00;;;25.20;96.70;;;;;;4908191;29;20048;-71
2021/08/03 09:15:36;;;;;;;3.33;1.17;;;25.10;96.70;;;;;;4921275;29;20056;-71
2021/08/03 09:18:14;;;;;;;4.47;1.10;;;25.10;96.70;;;;;;4909901;29;20067;-72
2021/08/03 09:20:44;;;;;;;5.82;1.15;;;25.20;96.70;;;;;;4927127;29;20044;-72
2021/08/03 09:23:13;;;;;;;4.38;1.15;;;25.30;96.70;;;;;;4910878;29;20058;-72
2021/08/03 09:25:53;;;;;;;4.00;1.10;;;25.30;96.70;;;;;;4921168;29;20079;-72
2021/08/03 09:28:21;;;;;;;4.25;1.30;;;25.40;96.70;;;;;;4908079;29;20044;-71
2021/08/03 09:30:50;;;;;;;5.53;1.27;;;25.60;96.70;;;;;;4905638;29;20040;-71
2021/08/03 09:33:23;;;;;;;5.97;1.10;;;25.60;96.70;;;;;;4908773;29;20039;-72
2021/08/03 09:35:51;;;;;;;3.97;1.20;;;25.70;96.70;;;;;;4928744;29;20043;-71
2021/08/03 09:38:20;;;;;;;2.13;0.60;;;25.80;96.70;;;;;;4921630;29;20046;-71
2021/08/03 09:40:52;;;;;;;4.32;1.00;;;25.90;95.90;;;;;;4909386;29;20040;-71
2021/08/03 09:43:27;;;;;;;4.63;1.10;;;26.00;95.80;;;;;;4907811;29;20087;-71
2021/08/03 09:45:57;;;;;;;3.33;0.82;;;26.20;96.30;;;;;;4908607;29;20068;-71
2021/08/03 09:48:27;;;;;;;3.88;1.23;;;26.30;94.60;;;;;;4908419;29;20052;-71
2021/08/03 09:50:58;;;;;;;5.13;1.00;;;26.30;94.80;;;;;;4906767;29;20047;-71
2021/08/03 09:53:37;;;;;;;2.63;0.82;;;26.40;95.60;;;;;;4907948;29;20621;-71
2021/08/03 09:56:09;;;;;;;3.75;1.08;;;26.50;95.00;;;;;;4908325;29;20444;-72
2021/08/03 09:58:53;;;;;;;5.70;1.10;;;26.50;94.20;;;;;;4909389;29;20047;-71
2021/08/03 10:01:26;;;;;;;5.05;1.38;;;26.60;94.60;;;;;;4905700;29;20060;-71
2021/08/03 10:03:57;;;;;;;4.25;1.00;;;26.50;94.70;;;;;;4909871;29;20055;-72
2021/08/03 10:06:26;;;;;;;3.97;0.80;;;26.50;94.70;;;;;;4918506;29;20048;-71
2021/08/03 10:08:55;;;;;;;2.35;0.93;;;26.70;94.60;;;;;;4920529;28;20053;-71
2021/08/03 10:11:26;;;;;;;3.92;0.75;;;26.70;94.00;;;;;;4906690;29;20989;-71
2021/08/03 10:13:56;;;;;;;3.40;0.95;;;26.80;93.40;;;;;;4908986;29;20521;-71
2021/08/03 10:16:26;;;;;;;3.40;0.88;;;26.80;92.70;;;;;;4907522;29;20044;-71
2021/08/03 10:18:56;;;;;;;4.55;0.90;;;26.80;93.10;;;;;;4907603;29;20044;-71
2021/08/03 10:21:32;;;;;;;3.63;1.15;;;27.00;92.60;;;;;;4904110;29;20111;-71
2021/08/03 10:24:08;;;;;;;4.20;0.75;;;27.20;92.10;;;;;;4920594;29;20353;-71
2021/08/03 10:26:38;;;;;;;5.35;0.93;;;27.30;91.60;;;;;;4904251;29;20276;-71
2021/08/03 10:29:24;;;;;;;5.05;0.98;;;27.30;90.00;;;;;;4922056;29;20143;-71
2021/08/03 10:31:53;;;;;;;3.63;1.00;;;27.40;90.60;;;;;;4935329;28;20050;-72
2021/08/03 10:34:59;;;;;;;3.15;0.82;;;27.30;91.20;;;;;;4906267;29;20047;-71
2021/08/03 10:38:07;;;;;;;3.65;0.93;;;27.20;90.80;;;;;;4906337;29;20105;-71
2021/08/03 10:41:16;;;;;;;2.38;0.80;;;27.40;90.80;;;;;;4922035;28;20075;-71
2021/08/03 10:43:51;;;;;;;5.47;0.90;;;27.60;90.60;;;;;;4899342;29;20051;-72
2021/08/03 10:46:38;;;;;;;4.63;1.08;;;27.80;90.10;;;;;;4908508;29;20111;-72
2021/08/03 10:49:07;;;;;;;2.42;0.68;;;27.90;88.70;;;;;;4885452;29;20822;-72
2021/08/03 10:51:43;;;;;;;1.50;0.73;;;27.90;88.20;;;;;;4923047;29;20136;-71
2021/08/03 10:54:18;;;;;;;4.65;0.85;;;27.90;88.50;;;;;;4905901;29;20052;-72
2021/08/03 10:57:19;;;;;;;2.10;0.73;;;28.10;88.70;;;;;;4907833;29;20154;-71
2021/08/03 11:00:05;;;;;;;2.53;1.40;;;28.40;88.70;;;;;;4903026;29;20052;-71
2021/08/03 11:02:45;;;;;;;2.88;0.85;;;28.40;89.20;;;;;;4934716;28;20048;-71
2021/08/03 11:05:30;;;;;;;4.40;1.10;;;28.50;87.60;;;;;;4908034;29;20048;-72
2021/08/03 11:08:40;;;;;;;2.90;0.80;;;28.60;86.60;;;;;;4902591;29;20147;-72
2021/08/03 11:11:11;;;;;;;7.20;1.63;;;28.70;85.90;;;;;;4906374;29;20048;-73
2021/08/03 11:13:46;;;;;;;3.70;1.10;;;28.70;86.10;;;;;;4899384;29;20068;-71
2021/08/03 11:16:46;;;;;;;3.47;0.82;;;28.80;86.10;;;;;;4908126;29;20410;-72
2021/08/03 11:19:35;;;;;;;3.22;0.88;;;28.90;85.30;;;;;;4922290;28;20455;-72
2021/08/03 11:22:07;;;;;;;2.17;0.88;;;29.00;84.30;;;;;;4905801;29;20590;-71
2021/08/03 11:24:42;;;;;;;1.73;0.88;;;29.00;83.00;;;;;;4921324;29;20505;-71
2021/08/03 11:27:22;;;;;;;2.95;0.95;;;29.00;83.00;;;;;;4923569;29;20047;-72
2021/08/03 11:29:52;;;;;;;1.48;0.82;;;29.10;83.60;;;;;;4934866;28;20091;-72
2021/08/03 11:32:21;;;;;;;4.15;1.00;;;29.10;82.60;;;;;;4905771;29;20040;-72
2021/08/03 11:34:55;;;;;;;2.85;0.68;;;29.20;82.90;;;;;;4906442;29;20095;-71
2021/08/03 11:37:24;;;;;;;2.10;0.75;;;29.30;82.50;;;;;;4906923;29;20082;-71
2021/08/03 11:39:54;;;;;;;4.35;0.70;;;29.40;83.00;;;;;;4905846;29;20040;-72
2021/08/03 11:42:33;;;;;;;2.35;0.70;;;29.30;83.00;;;;;;4906844;29;20040;-72
2021/08/03 11:45:10;;;;;;;5.15;0.93;;;29.30;83.40;;;;;;4921932;29;20561;-72
2021/08/03 11:47:44;;;;;;;3.60;0.82;;;29.00;83.60;;;;;;4904917;29;20502;-72
2021/08/03 11:50:14;;;;;;;2.13;0.98;;;29.20;83.90;;;;;;4907429;29;20533;-71
2021/08/03 11:52:42;;;;;;;4.35;0.80;;;29.40;83.40;;;;;;4905131;29;20048;-72
2021/08/03 11:55:15;;;;;;;2.50;0.90;;;29.50;83.10;;;;;;4904099;29;20040;-72
2021/08/03 11:57:50;;;;;;;3.83;0.90;;;29.40;82.20;;;;;;4905509;29;20055;-71
2021/08/03 12:00:22;;;;;;;1.80;0.82;;;29.30;82.10;;;;;;4906192;29;20762;-72
2021/08/03 12:02:54;;;;;;;1.40;0.60;;;29.60;81.80;;;;;;4903957;29;20079;-72
2021/08/03 12:05:28;;;;;;;3.05;0.90;;;29.60;81.90;;;;;;4905459;29;20055;-72
2021/08/03 12:08:03;;;;;;;1.55;0.77;;;29.40;81.90;;;;;;4906417;29;20593;-72
2021/08/03 12:10:34;;;;;;;2.97;0.90;;;29.20;82.30;;;;;;4908447;29;20100;-71
2021/08/03 12:13:03;;;;;;;3.17;0.77;;;29.50;82.40;;;;;;4914791;29;20111;-72
2021/08/03 12:15:42;;;;;;;4.05;1.15;;;29.50;80.50;;;;;;4908214;29;20040;-72
2021/08/03 12:18:12;;;;;;;2.78;0.85;;;29.30;80.80;;;;;;4938313;28;20082;-72
2021/08/03 12:20:42;;;;;;;2.20;0.60;;;29.50;80.50;;;;;;4907313;29;20565;-72
2021/08/03 12:23:17;;;;;;;3.28;0.70;;;29.60;79.00;;;;;;4909611;29;20052;-71
2021/08/03 12:25:51;;;;;;;3.83;0.60;;;29.70;77.50;;;;;;4908104;29;20056;-72
2021/08/03 12:28:27;;;;;;;2.20;0.55;;;29.80;77.50;;;;;;4903722;29;20410;-72
2021/08/03 12:30:56;;;;;;;2.78;0.77;;;29.80;77.30;;;;;;4908164;29;20055;-73
2021/08/03 12:33:31;;;;;;;2.15;0.70;;;29.90;77.10;;;;;;4910560;29;20040;-73
2021/08/03 12:36:07;;;;;;;1.38;0.80;;;30.00;77.30;;;;;;4908278;29;20048;-72
2021/08/03 12:38:36;;;;;;;1.40;0.68;;;30.00;77.20;;;;;;4909666;29;20071;-72
2021/08/03 12:41:16;;;;;;;1.13;0.50;;;30.20;77.40;;;;;;4902553;29;20506;-73
2021/08/03 12:43:44;;;;;;;1.95;0.85;;;30.00;75.90;;;;;;4924816;29;20044;-72
2021/08/03 12:46:13;;;;;;;2.40;0.68;;;30.20;77.00;;;;;;4908329;29;20048;-72
2021/08/03 12:48:52;;;;;;;4.90;1.00;;;30.30;75.90;;;;;;4908797;29;20068;-72
2021/08/03 12:51:26;;;;;;;1.65;0.57;;;30.60;76.90;;;;;;4910280;29;20052;-72
2021/08/03 12:54:09;;;;;;;2.42;0.60;;;30.40;75.70;;;;;;4891588;29;20132;-72
2021/08/03 12:56:46;;;;;;;2.85;0.90;;;30.20;76.10;;;;;;4910402;29;20074;-72
2021/08/03 12:59:40;;;;;;;2.60;0.60;;;30.30;75.70;;;;;;4908599;29;20499;-72
2021/08/03 13:02:11;;;;;;;2.55;0.70;;;30.00;75.20;;;;;;4924931;29;20510;-72
2021/08/03 13:04:41;;;;;;;4.18;1.00;;;30.10;75.80;;;;;;4908123;29;20261;-72
2021/08/03 13:07:11;;;;;;;1.25;0.60;;;30.10;76.30;;;;;;4924974;29;20545;-72
2021/08/03 13:09:39;;;;;;;1.85;1.00;;;30.20;76.10;;;;;;4908065;29;20044;-72
2021/08/03 13:12:09;;;;;;;3.03;0.70;;;30.20;76.60;;;;;;4909149;29;20142;-72
2021/08/03 13:14:37;;;;;;;3.00;1.05;;;30.30;75.90;;;;;;4907721;29;20355;-72
2021/08/03 13:17:06;;;;;;;1.75;0.60;;;30.40;75.90;;;;;;4923790;29;20048;-72
2021/08/03 13:19:35;;;;;;;1.85;0.65;;;30.40;74.80;;;;;;4906014;29;20052;-72
2021/08/03 13:22:05;;;;;;;1.48;0.82;;;30.40;74.70;;;;;;4921569;28;20047;-72
2021/08/03 13:24:34;;;;;;;2.83;0.60;;;30.40;75.10;;;;;;4907642;29;20487;-72
2021/08/03 13:27:04;;;;;;;4.57;0.73;;;30.50;75.20;;;;;;4909320;29;20040;-72
2021/08/03 13:29:32;;;;;;;1.77;0.50;;;30.60;74.50;;;;;;4908998;29;20044;-72
2021/08/03 13:32:00;;;;;;;4.20;0.70;;;30.60;74.40;;;;;;4909414;29;20051;-72